AAL1476 KDFW-KMCO
Flight info
| Callsign | AAL1476 |
|---|---|
| Flight time | N/A |
| Altitude | 35000 |
| Route | FORCK3 FORCK HAWES WINAP ORRKK ARNNY DEEDA GRNCH5 |
| Aircraft | A321/M-SDE3FGHIRWY/LB1 |
Departure
| Time | N/A |
|---|---|
| Airport | Dallas Fort Worth International Airport (KDFW) |
Arrival
| Time | 2026-04-24 16:52 |
|---|---|
| Airport | Orlando International Airport (KMCO) |
| Time | Latitude | Longitude | Altitude | Speed | Heading |
|---|---|---|---|---|---|
| 2026-04-24 13:32 | 32.81061 | -96.20351 | 17186 ft | 444 kts | 82° |
| 2026-04-24 13:32 | 32.81437 | -96.16699 | 17563 ft | 446 kts | 82° |
| 2026-04-24 13:33 | 32.81817 | -96.13022 | 17926 ft | 449 kts | 82° |
| 2026-04-24 13:33 | 32.82202 | -96.09328 | 18255 ft | 451 kts | 82° |
| 2026-04-24 13:33 | 32.82587 | -96.05614 | 18565 ft | 454 kts | 82° |
| 2026-04-24 13:33 | 32.82972 | -96.01881 | 18880 ft | 456 kts | 82° |
| 2026-04-24 13:34 | 32.83358 | -95.98121 | 19195 ft | 458 kts | 82° |
| 2026-04-24 13:34 | 32.83740 | -95.94351 | 19503 ft | 461 kts | 83° |
| 2026-04-24 13:34 | 32.84124 | -95.90560 | 19829 ft | 462 kts | 83° |
| 2026-04-24 13:34 | 32.84507 | -95.86754 | 20155 ft | 464 kts | 83° |
| 2026-04-24 13:35 | 32.84892 | -95.82930 | 20478 ft | 466 kts | 83° |
| 2026-04-24 13:35 | 32.85279 | -95.79072 | 20806 ft | 469 kts | 83° |
| 2026-04-24 13:35 | 32.85666 | -95.75212 | 21146 ft | 471 kts | 83° |
| 2026-04-24 13:35 | 32.86054 | -95.71336 | 21482 ft | 473 kts | 83° |
| 2026-04-24 13:36 | 32.86442 | -95.67499 | 21824 ft | 474 kts | 83° |
| 2026-04-24 13:36 | 32.86836 | -95.63599 | 22169 ft | 476 kts | 83° |
| 2026-04-24 13:36 | 32.87229 | -95.59677 | 22512 ft | 479 kts | 83° |
| 2026-04-24 13:36 | 32.87617 | -95.55734 | 22838 ft | 481 kts | 83° |
| 2026-04-24 13:37 | 32.88004 | -95.51773 | 23152 ft | 483 kts | 83° |
| 2026-04-24 13:37 | 32.88391 | -95.47788 | 23467 ft | 485 kts | 83° |
| 2026-04-24 13:37 | 32.88654 | -95.45090 | 23654 ft | 486 kts | 83° |
| 2026-04-24 13:37 | 32.89176 | -95.39791 | 24024 ft | 488 kts | 83° |
| 2026-04-24 13:38 | 32.89572 | -95.35778 | 24316 ft | 489 kts | 83° |
| 2026-04-24 13:38 | 32.89834 | -95.33117 | 24505 ft | 490 kts | 83° |
| 2026-04-24 13:38 | 32.90227 | -95.29093 | 24827 ft | 490 kts | 83° |
| 2026-04-24 13:38 | 32.90617 | -95.25065 | 25132 ft | 490 kts | 83° |
| 2026-04-24 13:39 | 32.91004 | -95.21033 | 25425 ft | 491 kts | 83° |
| 2026-04-24 13:39 | 32.91389 | -95.16989 | 25722 ft | 492 kts | 83° |
| 2026-04-24 13:39 | 32.91771 | -95.12941 | 26016 ft | 493 kts | 83° |
| 2026-04-24 13:39 | 32.92150 | -95.08875 | 26304 ft | 494 kts | 83° |
| 2026-04-24 13:40 | 32.92531 | -95.04805 | 26579 ft | 495 kts | 83° |
| 2026-04-24 13:40 | 32.92914 | -95.00728 | 26835 ft | 496 kts | 83° |
| 2026-04-24 13:40 | 32.93300 | -94.96651 | 27094 ft | 497 kts | 83° |
| 2026-04-24 13:40 | 32.93688 | -94.92563 | 27337 ft | 497 kts | 83° |
| 2026-04-24 13:41 | 32.94077 | -94.88469 | 27572 ft | 498 kts | 83° |
| 2026-04-24 13:41 | 32.94461 | -94.84379 | 27788 ft | 498 kts | 83° |
| 2026-04-24 13:41 | 32.94842 | -94.80268 | 27990 ft | 499 kts | 83° |
| 2026-04-24 13:41 | 32.95222 | -94.76145 | 28176 ft | 500 kts | 83° |
| 2026-04-24 13:42 | 32.95598 | -94.72029 | 28363 ft | 501 kts | 83° |
| 2026-04-24 13:42 | 32.95976 | -94.67899 | 28552 ft | 501 kts | 83° |
| 2026-04-24 13:42 | 32.96351 | -94.63781 | 28799 ft | 500 kts | 83° |
| 2026-04-24 13:42 | 32.96722 | -94.59712 | 29038 ft | 499 kts | 83° |
| 2026-04-24 13:43 | 32.97101 | -94.55556 | 29307 ft | 498 kts | 83° |
| 2026-04-24 13:43 | 32.97471 | -94.51469 | 29603 ft | 495 kts | 83° |
| 2026-04-24 13:43 | 32.97839 | -94.47396 | 29861 ft | 494 kts | 83° |
| 2026-04-24 13:43 | 32.98207 | -94.43334 | 30078 ft | 493 kts | 83° |
| 2026-04-24 13:44 | 32.98566 | -94.39333 | 30276 ft | 492 kts | 83° |
| 2026-04-24 13:44 | 32.98925 | -94.35289 | 30479 ft | 491 kts | 83° |
| 2026-04-24 13:44 | 32.99280 | -94.31244 | 30684 ft | 490 kts | 83° |
| 2026-04-24 13:44 | 32.99600 | -94.27211 | 30880 ft | 489 kts | 86° |
| 2026-04-24 13:45 | 32.99594 | -94.23161 | 31078 ft | 489 kts | 90° |
| 2026-04-24 13:45 | 32.99515 | -94.19114 | 31270 ft | 488 kts | 91° |
| 2026-04-24 13:45 | 32.99434 | -94.15073 | 31479 ft | 487 kts | 91° |
| 2026-04-24 13:45 | 32.99352 | -94.11039 | 31699 ft | 486 kts | 91° |
| 2026-04-24 13:46 | 32.99272 | -94.07021 | 31920 ft | 486 kts | 91° |
| 2026-04-24 13:46 | 32.99191 | -94.02995 | 32141 ft | 485 kts | 91° |
| 2026-04-24 13:46 | 32.99109 | -93.98983 | 32344 ft | 484 kts | 91° |
| 2026-04-24 13:46 | 32.99025 | -93.94977 | 32548 ft | 483 kts | 91° |
| 2026-04-24 13:47 | 32.98942 | -93.90979 | 32773 ft | 483 kts | 91° |
| 2026-04-24 13:47 | 32.98856 | -93.86983 | 32974 ft | 482 kts | 91° |
| 2026-04-24 13:47 | 32.98769 | -93.82995 | 33173 ft | 481 kts | 91° |
| 2026-04-24 13:47 | 32.98682 | -93.79013 | 33379 ft | 481 kts | 91° |
| 2026-04-24 13:48 | 32.98590 | -93.75037 | 33574 ft | 480 kts | 91° |
| 2026-04-24 13:48 | 32.98498 | -93.71063 | 33787 ft | 479 kts | 91° |
| 2026-04-24 13:48 | 32.98407 | -93.67106 | 33979 ft | 479 kts | 91° |
| 2026-04-24 13:48 | 32.98316 | -93.63138 | 34189 ft | 477 kts | 91° |
| 2026-04-24 13:49 | 32.98223 | -93.59182 | 34365 ft | 477 kts | 91° |
| 2026-04-24 13:49 | 32.98127 | -93.55238 | 34527 ft | 476 kts | 91° |
| 2026-04-24 13:49 | 32.98031 | -93.51291 | 34689 ft | 476 kts | 91° |
| 2026-04-24 13:49 | 32.97999 | -93.49965 | 34767 ft | 475 kts | 91° |
| 2026-04-24 13:50 | 32.97959 | -93.48287 | 34451 ft | 475 kts | 91° |
| 2026-04-24 13:51 | 32.97861 | -93.44352 | 34220 ft | 463 kts | 91° |
| 2026-04-24 13:51 | 32.97762 | -93.40597 | 34619 ft | 450 kts | 91° |
| 2026-04-24 13:51 | 32.97664 | -93.36873 | 34819 ft | 450 kts | 91° |
| 2026-04-24 13:51 | 32.97566 | -93.33176 | 34881 ft | 454 kts | 91° |
| 2026-04-24 13:52 | 32.97370 | -93.25564 | 34887 ft | 464 kts | 91° |
| 2026-04-24 13:52 | 32.97165 | -93.17808 | 34885 ft | 470 kts | 91° |
| 2026-04-24 13:53 | 32.96949 | -93.10012 | 34886 ft | 471 kts | 91° |
| 2026-04-24 13:53 | 32.96732 | -93.02214 | 34882 ft | 471 kts | 91° |
| 2026-04-24 13:54 | 32.96517 | -92.94429 | 34886 ft | 470 kts | 92° |
| 2026-04-24 13:54 | 32.96286 | -92.86638 | 34892 ft | 471 kts | 92° |
| 2026-04-24 13:55 | 32.95912 | -92.78907 | 34897 ft | 471 kts | 95° |
| 2026-04-24 13:55 | 32.95239 | -92.71139 | 34904 ft | 471 kts | 96° |
| 2026-04-24 13:56 | 32.94513 | -92.63393 | 34903 ft | 471 kts | 96° |
| 2026-04-24 13:56 | 32.93850 | -92.55640 | 34905 ft | 471 kts | 95° |
| 2026-04-24 13:57 | 32.93227 | -92.47884 | 34912 ft | 470 kts | 95° |
| 2026-04-24 13:57 | 32.92593 | -92.40137 | 34909 ft | 470 kts | 96° |
| 2026-04-24 13:58 | 32.91939 | -92.32382 | 34913 ft | 471 kts | 96° |
| 2026-04-24 13:58 | 32.91282 | -92.24632 | 34924 ft | 470 kts | 95° |
| 2026-04-24 13:59 | 32.90615 | -92.16895 | 34931 ft | 470 kts | 95° |
| 2026-04-24 13:59 | 32.89948 | -92.09168 | 34945 ft | 469 kts | 96° |
| 2026-04-24 14:00 | 32.89275 | -92.01443 | 34953 ft | 469 kts | 96° |
| 2026-04-24 14:00 | 32.88606 | -91.93773 | 34962 ft | 469 kts | 96° |
| 2026-04-24 14:01 | 32.87926 | -91.86057 | 34919 ft | 469 kts | 95° |
| 2026-04-24 14:01 | 32.87238 | -91.78333 | 34902 ft | 470 kts | 95° |
| 2026-04-24 14:02 | 32.86546 | -91.70583 | 34904 ft | 472 kts | 96° |
| 2026-04-24 14:02 | 32.85848 | -91.62811 | 34914 ft | 473 kts | 96° |
| 2026-04-24 14:03 | 32.85144 | -91.55015 | 34917 ft | 474 kts | 96° |
| 2026-04-24 14:03 | 32.84431 | -91.47222 | 34930 ft | 475 kts | 96° |
| 2026-04-24 14:04 | 32.83710 | -91.39410 | 34933 ft | 475 kts | 96° |
| 2026-04-24 14:04 | 32.82988 | -91.31590 | 34943 ft | 476 kts | 95° |
| 2026-04-24 14:05 | 32.82266 | -91.23770 | 34947 ft | 476 kts | 96° |
| 2026-04-24 14:05 | 32.81527 | -91.15948 | 34950 ft | 476 kts | 96° |
| 2026-04-24 14:06 | 32.80794 | -91.08128 | 34956 ft | 476 kts | 96° |
| 2026-04-24 14:06 | 32.80057 | -91.00312 | 34958 ft | 476 kts | 96° |
| 2026-04-24 14:07 | 32.79310 | -90.92543 | 34966 ft | 476 kts | 96° |
| 2026-04-24 14:07 | 32.78558 | -90.84742 | 34964 ft | 475 kts | 96° |
| 2026-04-24 14:08 | 32.77796 | -90.76936 | 34963 ft | 475 kts | 96° |
| 2026-04-24 14:08 | 32.77027 | -90.69143 | 34958 ft | 475 kts | 96° |
| 2026-04-24 14:09 | 32.76265 | -90.61342 | 34959 ft | 475 kts | 96° |
| 2026-04-24 14:09 | 32.75499 | -90.53542 | 34955 ft | 475 kts | 96° |
| 2026-04-24 14:10 | 32.74723 | -90.45751 | 34953 ft | 475 kts | 96° |
| 2026-04-24 14:10 | 32.73940 | -90.37971 | 34950 ft | 475 kts | 96° |
| 2026-04-24 14:11 | 32.73154 | -90.30186 | 34954 ft | 474 kts | 96° |
| 2026-04-24 14:12 | 32.71979 | -90.18560 | 34957 ft | 475 kts | 96° |
| 2026-04-24 14:12 | 32.71183 | -90.10773 | 34956 ft | 475 kts | 96° |
| 2026-04-24 14:13 | 32.70385 | -90.02991 | 34959 ft | 475 kts | 96° |
| 2026-04-24 14:13 | 32.69580 | -89.95216 | 34934 ft | 475 kts | 96° |
| 2026-04-24 14:14 | 32.68759 | -89.87431 | 34937 ft | 475 kts | 96° |
| 2026-04-24 14:14 | 32.67528 | -89.75758 | 34937 ft | 475 kts | 96° |
| 2026-04-24 14:15 | 32.66712 | -89.67974 | 34926 ft | 475 kts | 96° |
| 2026-04-24 14:15 | 32.65892 | -89.60239 | 34927 ft | 475 kts | 96° |
| 2026-04-24 14:16 | 32.65057 | -89.52461 | 34913 ft | 475 kts | 96° |
| 2026-04-24 14:17 | 32.63788 | -89.40798 | 34942 ft | 475 kts | 96° |
| 2026-04-24 14:17 | 32.62725 | -89.29112 | 34957 ft | 474 kts | 92° |
| 2026-04-24 14:18 | 32.62324 | -89.21304 | 34966 ft | 474 kts | 91° |
| 2026-04-24 14:18 | 32.61927 | -89.13491 | 34971 ft | 475 kts | 92° |
| 2026-04-24 14:19 | 32.61448 | -89.05671 | 34931 ft | 475 kts | 93° |
| 2026-04-24 14:19 | 32.60934 | -88.97897 | 34949 ft | 476 kts | 93° |
| 2026-04-24 14:20 | 32.60419 | -88.90062 | 34963 ft | 477 kts | 93° |
| 2026-04-24 14:20 | 32.59908 | -88.82220 | 34978 ft | 477 kts | 92° |
| 2026-04-24 14:21 | 32.59390 | -88.74386 | 34991 ft | 477 kts | 92° |
| 2026-04-24 14:21 | 32.58871 | -88.66557 | 35028 ft | 476 kts | 92° |
| 2026-04-24 14:22 | 32.58346 | -88.58732 | 35031 ft | 476 kts | 92° |
| 2026-04-24 14:23 | 32.57565 | -88.47000 | 35034 ft | 476 kts | 92° |
| 2026-04-24 14:23 | 32.57039 | -88.39239 | 35007 ft | 476 kts | 92° |
| 2026-04-24 14:24 | 32.56496 | -88.31428 | 34972 ft | 476 kts | 92° |
| 2026-04-24 14:24 | 32.55946 | -88.23610 | 34937 ft | 475 kts | 92° |
| 2026-04-24 14:25 | 32.55481 | -88.17067 | 34913 ft | 475 kts | 92° |
| 2026-04-24 14:25 | 32.54838 | -88.07992 | 34907 ft | 475 kts | 92° |
| 2026-04-24 14:26 | 32.54371 | -88.01446 | 34911 ft | 476 kts | 92° |
| 2026-04-24 14:26 | 32.53573 | -87.93706 | 34905 ft | 479 kts | 101° |
| 2026-04-24 14:27 | 32.52042 | -87.86029 | 34911 ft | 479 kts | 101° |
| 2026-04-24 14:27 | 32.50517 | -87.78341 | 34912 ft | 479 kts | 101° |
| 2026-04-24 14:28 | 32.48985 | -87.70655 | 34919 ft | 479 kts | 101° |
| 2026-04-24 14:28 | 32.47448 | -87.62970 | 34914 ft | 479 kts | 101° |
| 2026-04-24 14:29 | 32.45913 | -87.55292 | 34924 ft | 479 kts | 101° |
| 2026-04-24 14:29 | 32.44360 | -87.47605 | 34923 ft | 479 kts | 101° |
| 2026-04-24 14:30 | 32.42802 | -87.39932 | 34930 ft | 479 kts | 101° |
| 2026-04-24 14:30 | 32.41242 | -87.32261 | 34934 ft | 479 kts | 101° |
| 2026-04-24 14:31 | 32.39684 | -87.24592 | 34947 ft | 479 kts | 101° |
| 2026-04-24 14:31 | 32.38126 | -87.16924 | 34943 ft | 479 kts | 101° |
| 2026-04-24 14:32 | 32.36552 | -87.09258 | 34938 ft | 479 kts | 101° |
| 2026-04-24 14:32 | 32.34971 | -87.01609 | 34939 ft | 479 kts | 102° |
| 2026-04-24 14:32 | 32.33961 | -86.97846 | 35042 ft | 481 kts | 110° |
| 2026-04-24 14:33 | 32.32602 | -86.94232 | 35041 ft | 482 kts | 112° |
| 2026-04-24 14:33 | 32.29859 | -86.87062 | 35024 ft | 482 kts | 112° |
| 2026-04-24 14:34 | 32.27109 | -86.79833 | 35006 ft | 482 kts | 112° |
| 2026-04-24 14:34 | 32.24359 | -86.72611 | 34983 ft | 482 kts | 112° |
| 2026-04-24 14:35 | 32.21596 | -86.65389 | 34988 ft | 482 kts | 112° |
| 2026-04-24 14:35 | 32.18827 | -86.58162 | 35021 ft | 483 kts | 112° |
| 2026-04-24 14:36 | 32.16050 | -86.50951 | 35042 ft | 482 kts | 112° |
| 2026-04-24 14:36 | 32.13277 | -86.43751 | 35047 ft | 482 kts | 112° |
| 2026-04-24 14:37 | 32.10500 | -86.36558 | 35045 ft | 481 kts | 112° |
| 2026-04-24 14:37 | 32.07724 | -86.29382 | 35054 ft | 481 kts | 112° |
| 2026-04-24 14:38 | 32.04939 | -86.22197 | 35052 ft | 481 kts | 112° |
| 2026-04-24 14:38 | 32.02158 | -86.15031 | 35072 ft | 481 kts | 113° |
| 2026-04-24 14:39 | 31.99389 | -86.07925 | 35073 ft | 480 kts | 113° |
| 2026-04-24 14:39 | 31.96600 | -86.00778 | 35073 ft | 480 kts | 113° |
| 2026-04-24 14:40 | 31.93812 | -85.93631 | 35073 ft | 480 kts | 113° |
| 2026-04-24 14:40 | 31.91015 | -85.86488 | 35071 ft | 480 kts | 113° |
| 2026-04-24 14:41 | 31.88217 | -85.79353 | 35063 ft | 480 kts | 113° |
| 2026-04-24 14:41 | 31.85411 | -85.72210 | 35060 ft | 480 kts | 113° |
| 2026-04-24 14:42 | 31.82604 | -85.65083 | 35051 ft | 480 kts | 113° |
| 2026-04-24 14:42 | 31.79792 | -85.57957 | 35046 ft | 480 kts | 113° |
| 2026-04-24 14:43 | 31.76976 | -85.50843 | 35047 ft | 480 kts | 113° |
| 2026-04-24 14:43 | 31.74150 | -85.43727 | 35045 ft | 480 kts | 113° |
| 2026-04-24 14:44 | 31.71326 | -85.36625 | 35051 ft | 479 kts | 114° |
| 2026-04-24 14:44 | 31.68504 | -85.29541 | 35060 ft | 479 kts | 114° |
| 2026-04-24 14:45 | 31.65699 | -85.22498 | 35070 ft | 479 kts | 114° |
| 2026-04-24 14:45 | 31.62855 | -85.15371 | 35070 ft | 479 kts | 114° |
| 2026-04-24 14:46 | 31.60044 | -85.08352 | 35072 ft | 479 kts | 114° |
| 2026-04-24 14:46 | 31.57216 | -85.01278 | 35088 ft | 478 kts | 112° |
| 2026-04-24 14:47 | 31.54937 | -84.93978 | 35091 ft | 476 kts | 109° |
| 2026-04-24 14:47 | 31.52713 | -84.86676 | 35096 ft | 475 kts | 109° |
| 2026-04-24 14:48 | 31.50481 | -84.79387 | 35088 ft | 475 kts | 109° |
| 2026-04-24 14:48 | 31.48240 | -84.72110 | 35087 ft | 474 kts | 109° |
| 2026-04-24 14:49 | 31.45997 | -84.64843 | 35090 ft | 474 kts | 109° |
| 2026-04-24 14:49 | 31.43757 | -84.57592 | 35087 ft | 473 kts | 109° |
| 2026-04-24 14:50 | 31.41522 | -84.50362 | 35086 ft | 472 kts | 110° |
| 2026-04-24 14:50 | 31.39305 | -84.43193 | 35074 ft | 471 kts | 109° |
| 2026-04-24 14:51 | 31.37063 | -84.35977 | 35069 ft | 471 kts | 110° |
| 2026-04-24 14:51 | 31.34821 | -84.28784 | 35060 ft | 471 kts | 110° |
| 2026-04-24 14:52 | 31.32574 | -84.21588 | 35071 ft | 470 kts | 110° |
| 2026-04-24 14:52 | 31.30330 | -84.14414 | 35061 ft | 470 kts | 110° |
| 2026-04-24 14:53 | 31.28082 | -84.07244 | 35072 ft | 470 kts | 110° |
| 2026-04-24 14:53 | 31.25833 | -84.00075 | 35066 ft | 470 kts | 110° |
| 2026-04-24 14:54 | 31.23573 | -83.92913 | 35065 ft | 470 kts | 110° |
| 2026-04-24 14:54 | 31.21311 | -83.85753 | 35075 ft | 469 kts | 110° |
| 2026-04-24 14:55 | 31.19435 | -83.79813 | 35075 ft | 469 kts | 111° |
| 2026-04-24 14:55 | 31.16787 | -83.71479 | 35075 ft | 468 kts | 111° |
| 2026-04-24 14:56 | 31.14539 | -83.64404 | 35074 ft | 468 kts | 111° |
| 2026-04-24 14:56 | 31.12274 | -83.57285 | 35062 ft | 468 kts | 111° |
| 2026-04-24 14:57 | 31.10004 | -83.50172 | 35076 ft | 467 kts | 111° |
| 2026-04-24 14:57 | 31.07735 | -83.43072 | 35070 ft | 467 kts | 111° |
| 2026-04-24 14:58 | 31.05458 | -83.35989 | 35060 ft | 466 kts | 111° |
| 2026-04-24 14:58 | 31.03182 | -83.28912 | 35065 ft | 466 kts | 111° |
| 2026-04-24 14:59 | 31.00901 | -83.21838 | 35062 ft | 466 kts | 111° |
| 2026-04-24 14:59 | 30.98620 | -83.14780 | 35060 ft | 465 kts | 111° |
| 2026-04-24 15:00 | 30.96333 | -83.07725 | 35061 ft | 465 kts | 111° |
| 2026-04-24 15:00 | 30.94052 | -83.00665 | 35063 ft | 466 kts | 111° |
| 2026-04-24 15:01 | 30.91766 | -82.93610 | 35087 ft | 465 kts | 111° |
| 2026-04-24 15:01 | 30.88940 | -82.86864 | 35087 ft | 464 kts | 126° |
| 2026-04-24 15:02 | 30.84563 | -82.81494 | 35109 ft | 460 kts | 143° |
| 2026-04-24 15:02 | 30.79492 | -82.76931 | 35111 ft | 461 kts | 143° |
| 2026-04-24 15:03 | 30.75247 | -82.73095 | 35128 ft | 461 kts | 143° |
| 2026-04-24 15:03 | 30.69353 | -82.67772 | 35131 ft | 462 kts | 143° |
| 2026-04-24 15:04 | 30.64272 | -82.63197 | 35133 ft | 462 kts | 143° |
| 2026-04-24 15:04 | 30.59187 | -82.58627 | 35137 ft | 463 kts | 143° |
| 2026-04-24 15:05 | 30.54091 | -82.54064 | 35160 ft | 463 kts | 143° |
| 2026-04-24 15:05 | 30.48998 | -82.49501 | 35171 ft | 463 kts | 143° |
| 2026-04-24 15:06 | 30.43901 | -82.44937 | 35168 ft | 462 kts | 143° |
| 2026-04-24 15:06 | 30.38842 | -82.40406 | 35162 ft | 462 kts | 143° |
| 2026-04-24 15:07 | 30.33748 | -82.35856 | 35180 ft | 463 kts | 143° |
| 2026-04-24 15:07 | 30.28642 | -82.31305 | 35167 ft | 463 kts | 143° |
| 2026-04-24 15:08 | 30.23529 | -82.26773 | 35164 ft | 462 kts | 146° |
| 2026-04-24 15:08 | 30.17829 | -82.23456 | 35148 ft | 458 kts | 164° |
| 2026-04-24 15:09 | 30.11604 | -82.21996 | 35125 ft | 457 kts | 172° |
| 2026-04-24 15:09 | 30.05330 | -82.20765 | 35111 ft | 458 kts | 172° |
| 2026-04-24 15:10 | 29.99046 | -82.19523 | 35108 ft | 458 kts | 172° |
| 2026-04-24 15:10 | 29.92792 | -82.18284 | 34220 ft | 463 kts | 172° |
| 2026-04-24 15:10 | 29.89579 | -82.17650 | 32910 ft | 475 kts | 172° |
| 2026-04-24 15:11 | 29.86305 | -82.17001 | 31901 ft | 478 kts | 172° |
| 2026-04-24 15:11 | 29.83025 | -82.16348 | 30977 ft | 480 kts | 172° |
| 2026-04-24 15:11 | 29.79722 | -82.15686 | 29994 ft | 482 kts | 172° |
| 2026-04-24 15:11 | 29.76397 | -82.15020 | 28898 ft | 484 kts | 172° |
| 2026-04-24 15:12 | 29.73077 | -82.14357 | 28080 ft | 482 kts | 172° |
| 2026-04-24 15:12 | 29.66568 | -82.13057 | 26806 ft | 470 kts | 172° |
| 2026-04-24 15:12 | 29.63354 | -82.12418 | 26144 ft | 466 kts | 172° |
| 2026-04-24 15:13 | 29.60171 | -82.11784 | 25497 ft | 462 kts | 172° |
| 2026-04-24 15:13 | 29.57014 | -82.11155 | 24848 ft | 459 kts | 172° |
| 2026-04-24 15:13 | 29.53885 | -82.10537 | 24214 ft | 455 kts | 172° |
| 2026-04-24 15:13 | 29.50773 | -82.09925 | 23564 ft | 452 kts | 172° |
| 2026-04-24 15:14 | 29.47685 | -82.09315 | 22903 ft | 447 kts | 172° |
| 2026-04-24 15:14 | 29.44648 | -82.08713 | 22325 ft | 440 kts | 172° |
| 2026-04-24 15:14 | 29.41653 | -82.08121 | 21777 ft | 433 kts | 172° |
| 2026-04-24 15:14 | 29.38711 | -82.07541 | 21234 ft | 425 kts | 172° |
| 2026-04-24 15:15 | 29.35864 | -82.06980 | 20740 ft | 416 kts | 172° |
| 2026-04-24 15:15 | 29.33038 | -82.06416 | 20303 ft | 408 kts | 170° |
| 2026-04-24 15:15 | 29.30309 | -82.05517 | 20189 ft | 410 kts | 160° |
| 2026-04-24 15:15 | 29.27716 | -82.04125 | 19539 ft | 412 kts | 152° |
| 2026-04-24 15:16 | 29.25220 | -82.02539 | 18959 ft | 408 kts | 152° |
| 2026-04-24 15:16 | 29.23553 | -82.01476 | 18707 ft | 402 kts | 152° |
| 2026-04-24 15:16 | 29.21178 | -81.99963 | 18374 ft | 392 kts | 152° |
| 2026-04-24 15:16 | 29.18805 | -81.98460 | 17830 ft | 388 kts | 152° |
| 2026-04-24 15:17 | 29.16455 | -81.96981 | 17286 ft | 384 kts | 152° |
| 2026-04-24 15:17 | 29.14121 | -81.95517 | 16751 ft | 380 kts | 153° |
| 2026-04-24 15:17 | 29.11808 | -81.94070 | 16242 ft | 376 kts | 153° |
| 2026-04-24 15:17 | 29.09521 | -81.92639 | 15747 ft | 373 kts | 153° |
| 2026-04-24 15:18 | 29.07285 | -81.91161 | 15254 ft | 370 kts | 146° |
| 2026-04-24 15:18 | 29.05311 | -81.89294 | 14781 ft | 368 kts | 137° |
| 2026-04-24 15:18 | 29.03463 | -81.87293 | 14305 ft | 365 kts | 137° |
| 2026-04-24 15:18 | 29.01625 | -81.85312 | 13828 ft | 362 kts | 137° |
| 2026-04-24 15:19 | 28.99803 | -81.83354 | 13293 ft | 358 kts | 137° |
| 2026-04-24 15:19 | 28.98029 | -81.81369 | 12783 ft | 356 kts | 132° |
| 2026-04-24 15:19 | 28.96503 | -81.79161 | 12279 ft | 353 kts | 128° |
| 2026-04-24 15:19 | 28.95034 | -81.76978 | 11787 ft | 350 kts | 128° |
| 2026-04-24 15:20 | 28.93558 | -81.74786 | 11315 ft | 346 kts | 128° |
| 2026-04-24 15:20 | 28.92116 | -81.72647 | 11176 ft | 332 kts | 128° |
| 2026-04-24 15:20 | 28.90739 | -81.70605 | 11049 ft | 318 kts | 129° |
| 2026-04-24 15:20 | 28.89408 | -81.68630 | 10788 ft | 311 kts | 129° |
| 2026-04-24 15:21 | 28.88097 | -81.66688 | 10434 ft | 308 kts | 129° |
| 2026-04-24 15:21 | 28.86795 | -81.64760 | 10039 ft | 305 kts | 129° |
| 2026-04-24 15:21 | 28.85502 | -81.62850 | 9614 ft | 303 kts | 129° |
| 2026-04-24 15:21 | 28.84218 | -81.60956 | 9211 ft | 301 kts | 129° |
| 2026-04-24 15:22 | 28.82944 | -81.59073 | 8810 ft | 298 kts | 128° |
| 2026-04-24 15:22 | 28.81686 | -81.57215 | 8552 ft | 291 kts | 129° |
| 2026-04-24 15:22 | 28.80478 | -81.55428 | 8412 ft | 279 kts | 128° |
| 2026-04-24 15:23 | 28.78218 | -81.51953 | 7823 ft | 269 kts | 124° |
| 2026-04-24 15:23 | 28.76208 | -81.48391 | 7119 ft | 265 kts | 122° |
| 2026-04-24 15:23 | 28.75242 | -81.46638 | 6663 ft | 267 kts | 122° |
| 2026-04-24 15:24 | 28.71636 | -81.42051 | 5644 ft | 255 kts | 145° |
| 2026-04-24 15:25 | 28.68762 | -81.39812 | 5092 ft | 245 kts | 144° |
| 2026-04-24 15:25 | 28.65990 | -81.37637 | 4546 ft | 239 kts | 144° |
| 2026-04-24 15:26 | 28.61970 | -81.34495 | 3766 ft | 229 kts | 144° |
| 2026-04-24 15:27 | 28.58099 | -81.31470 | 3012 ft | 224 kts | 146° |
| 2026-04-24 15:27 | 28.53890 | -81.29695 | 2575 ft | 221 kts | 179° |
| 2026-04-24 15:28 | 28.47700 | -81.29636 | 2599 ft | 223 kts | 179° |
| 2026-04-24 15:29 | 28.44618 | -81.29601 | 2599 ft | 221 kts | 179° |
| 2026-04-24 15:30 | 28.39929 | -81.29547 | 2597 ft | 230 kts | 178° |
| 2026-04-24 15:31 | 28.33770 | -81.29483 | 2593 ft | 219 kts | 178° |
| 2026-04-24 15:32 | 28.27586 | -81.29419 | 2596 ft | 220 kts | 178° |
| 2026-04-24 15:33 | 28.21491 | -81.29357 | 2587 ft | 221 kts | 178° |
| 2026-04-24 15:33 | 28.16892 | -81.29303 | 2578 ft | 220 kts | 178° |
| 2026-04-24 15:34 | 28.13860 | -81.28795 | 2579 ft | 219 kts | 166° |
| 2026-04-24 15:35 | 28.09380 | -81.27536 | 2558 ft | 221 kts | 165° |
| 2026-04-24 15:35 | 28.06670 | -81.26110 | 2552 ft | 218 kts | 127° |
| 2026-04-24 15:35 | 28.06068 | -81.24547 | 2563 ft | 219 kts | 98° |
| 2026-04-24 15:36 | 28.06263 | -81.22850 | 2551 ft | 222 kts | 66° |
| 2026-04-24 15:36 | 28.08707 | -81.20911 | 2550 ft | 230 kts | 3° |
| 2026-04-24 15:36 | 28.10256 | -81.21334 | 2560 ft | 232 kts | 328° |
| 2026-04-24 15:37 | 28.11353 | -81.22641 | 2546 ft | 231 kts | 294° |
| 2026-04-24 15:37 | 28.11658 | -81.24374 | 2560 ft | 230 kts | 267° |
| 2026-04-24 15:37 | 28.11707 | -81.26192 | 2546 ft | 233 kts | 280° |
| 2026-04-24 15:37 | 28.12452 | -81.27791 | 2553 ft | 234 kts | 317° |
| 2026-04-24 15:38 | 28.13843 | -81.28691 | 2584 ft | 233 kts | 346° |
| 2026-04-24 15:38 | 28.15423 | -81.29117 | 2581 ft | 235 kts | 348° |
| 2026-04-24 15:38 | 28.17027 | -81.29438 | 2578 ft | 234 kts | 2° |
| 2026-04-24 15:38 | 28.18577 | -81.28990 | 2586 ft | 230 kts | 32° |
| 2026-04-24 15:39 | 28.19717 | -81.27775 | 2581 ft | 226 kts | 61° |
| 2026-04-24 15:39 | 28.20208 | -81.26115 | 2589 ft | 222 kts | 89° |
| 2026-04-24 15:39 | 28.19962 | -81.24401 | 2588 ft | 222 kts | 116° |
| 2026-04-24 15:39 | 28.19037 | -81.23022 | 2579 ft | 222 kts | 143° |
| 2026-04-24 15:40 | 28.17653 | -81.22278 | 2590 ft | 223 kts | 165° |
| 2026-04-24 15:40 | 28.16143 | -81.21861 | 2577 ft | 221 kts | 167° |
| 2026-04-24 15:40 | 28.14638 | -81.21477 | 2574 ft | 222 kts | 167° |
| 2026-04-24 15:40 | 28.13132 | -81.21096 | 2568 ft | 222 kts | 166° |
| 2026-04-24 15:41 | 28.11624 | -81.20711 | 2561 ft | 224 kts | 166° |
| 2026-04-24 15:41 | 28.10090 | -81.20586 | 2553 ft | 223 kts | 189° |
| 2026-04-24 15:41 | 28.08666 | -81.21254 | 2546 ft | 225 kts | 217° |
| 2026-04-24 15:41 | 28.07679 | -81.22629 | 2551 ft | 229 kts | 246° |
| 2026-04-24 15:42 | 28.07398 | -81.24405 | 2550 ft | 234 kts | 276° |
| 2026-04-24 15:42 | 28.07931 | -81.26130 | 2549 ft | 234 kts | 306° |
| 2026-04-24 15:42 | 28.09141 | -81.27336 | 2543 ft | 233 kts | 337° |
| 2026-04-24 15:42 | 28.10686 | -81.27879 | 2555 ft | 234 kts | 347° |
| 2026-04-24 15:43 | 28.12247 | -81.28291 | 2548 ft | 234 kts | 348° |
| 2026-04-24 15:43 | 28.13842 | -81.28693 | 2583 ft | 235 kts | 348° |
| 2026-04-24 15:43 | 28.15433 | -81.29092 | 2579 ft | 235 kts | 349° |
| 2026-04-24 15:43 | 28.17035 | -81.29415 | 2577 ft | 234 kts | 2° |
| 2026-04-24 15:44 | 28.18590 | -81.28971 | 2586 ft | 230 kts | 31° |
| 2026-04-24 15:44 | 28.19729 | -81.27749 | 2583 ft | 226 kts | 60° |
| 2026-04-24 15:44 | 28.20208 | -81.26087 | 2587 ft | 222 kts | 90° |
| 2026-04-24 15:44 | 28.19947 | -81.24381 | 2584 ft | 221 kts | 116° |
| 2026-04-24 15:45 | 28.19023 | -81.23015 | 2579 ft | 220 kts | 143° |
| 2026-04-24 15:45 | 28.17650 | -81.22279 | 2592 ft | 221 kts | 165° |
| 2026-04-24 15:45 | 28.16156 | -81.21864 | 2576 ft | 221 kts | 167° |
| 2026-04-24 15:45 | 28.14660 | -81.21481 | 2573 ft | 220 kts | 167° |
| 2026-04-24 15:46 | 28.13168 | -81.21105 | 2568 ft | 220 kts | 166° |
| 2026-04-24 15:46 | 28.11665 | -81.20723 | 2556 ft | 223 kts | 166° |
| 2026-04-24 15:46 | 28.10138 | -81.20583 | 2549 ft | 222 kts | 188° |
| 2026-04-24 15:46 | 28.08711 | -81.21218 | 2546 ft | 224 kts | 216° |
| 2026-04-24 15:47 | 28.07708 | -81.22569 | 2552 ft | 228 kts | 244° |
| 2026-04-24 15:47 | 28.07405 | -81.24335 | 2551 ft | 233 kts | 274° |
| 2026-04-24 15:47 | 28.07910 | -81.26066 | 2546 ft | 235 kts | 305° |
| 2026-04-24 15:47 | 28.09104 | -81.27306 | 2545 ft | 232 kts | 336° |
| 2026-04-24 15:48 | 28.10642 | -81.27854 | 2551 ft | 233 kts | 347° |
| 2026-04-24 15:48 | 28.12215 | -81.28270 | 2548 ft | 232 kts | 348° |
| 2026-04-24 15:48 | 28.13775 | -81.28667 | 2584 ft | 235 kts | 348° |
| 2026-04-24 15:48 | 28.15363 | -81.29071 | 2582 ft | 235 kts | 348° |
| 2026-04-24 15:49 | 28.16953 | -81.29411 | 2575 ft | 232 kts | 0° |
| 2026-04-24 15:49 | 28.18503 | -81.29014 | 2584 ft | 229 kts | 32° |
| 2026-04-24 15:49 | 28.19657 | -81.27825 | 2584 ft | 225 kts | 60° |
| 2026-04-24 15:49 | 28.20157 | -81.26178 | 2580 ft | 221 kts | 89° |
| 2026-04-24 15:50 | 28.19915 | -81.24476 | 2581 ft | 219 kts | 116° |
| 2026-04-24 15:50 | 28.19010 | -81.23112 | 2581 ft | 219 kts | 142° |
| 2026-04-24 15:50 | 28.17640 | -81.22368 | 2580 ft | 220 kts | 165° |
| 2026-04-24 15:50 | 28.16152 | -81.21954 | 2566 ft | 218 kts | 166° |
| 2026-04-24 15:51 | 28.14655 | -81.21568 | 2573 ft | 222 kts | 167° |
| 2026-04-24 15:51 | 28.13158 | -81.21188 | 2566 ft | 221 kts | 167° |
| 2026-04-24 15:51 | 28.11649 | -81.20802 | 2564 ft | 224 kts | 166° |
| 2026-04-24 15:51 | 28.10116 | -81.20656 | 2556 ft | 223 kts | 187° |
| 2026-04-24 15:52 | 28.08707 | -81.21296 | 2549 ft | 224 kts | 216° |
| 2026-04-24 15:52 | 28.07718 | -81.22660 | 2555 ft | 229 kts | 245° |
| 2026-04-24 15:52 | 28.07435 | -81.24429 | 2552 ft | 231 kts | 276° |
| 2026-04-24 15:52 | 28.07957 | -81.26139 | 2544 ft | 232 kts | 307° |
| 2026-04-24 15:53 | 28.09155 | -81.27339 | 2546 ft | 232 kts | 337° |
| 2026-04-24 15:53 | 28.10697 | -81.27865 | 2561 ft | 233 kts | 348° |
| 2026-04-24 15:53 | 28.12271 | -81.28275 | 2547 ft | 232 kts | 348° |
| 2026-04-24 15:53 | 28.13848 | -81.28678 | 2585 ft | 233 kts | 348° |
| 2026-04-24 15:54 | 28.15436 | -81.29083 | 2586 ft | 236 kts | 348° |
| 2026-04-24 15:54 | 28.17034 | -81.29407 | 2575 ft | 232 kts | 2° |
| 2026-04-24 15:54 | 28.18575 | -81.28976 | 2588 ft | 228 kts | 31° |
| 2026-04-24 15:54 | 28.19716 | -81.27776 | 2582 ft | 225 kts | 60° |
| 2026-04-24 15:55 | 28.20208 | -81.26121 | 2586 ft | 222 kts | 89° |
| 2026-04-24 15:55 | 28.19955 | -81.24419 | 2580 ft | 221 kts | 116° |
| 2026-04-24 15:55 | 28.19032 | -81.23049 | 2582 ft | 220 kts | 143° |
| 2026-04-24 15:55 | 28.17679 | -81.22314 | 2579 ft | 221 kts | 165° |
| 2026-04-24 15:56 | 28.16181 | -81.21896 | 2565 ft | 218 kts | 167° |
| 2026-04-24 15:56 | 28.14687 | -81.21514 | 2570 ft | 221 kts | 167° |
| 2026-04-24 15:56 | 28.13182 | -81.21137 | 2565 ft | 223 kts | 166° |
| 2026-04-24 15:56 | 28.11673 | -81.20753 | 2552 ft | 223 kts | 166° |
| 2026-04-24 15:57 | 28.10138 | -81.20608 | 2557 ft | 223 kts | 187° |
| 2026-04-24 15:57 | 28.08710 | -81.21243 | 2546 ft | 223 kts | 216° |
| 2026-04-24 15:57 | 28.07968 | -81.22092 | 2553 ft | 227 kts | 234° |
| 2026-04-24 15:57 | 28.07406 | -81.24352 | 2550 ft | 232 kts | 275° |
| 2026-04-24 15:58 | 28.07901 | -81.26078 | 2544 ft | 233 kts | 304° |
| 2026-04-24 15:58 | 28.09082 | -81.27305 | 2547 ft | 231 kts | 335° |
| 2026-04-24 15:58 | 28.10617 | -81.27849 | 2555 ft | 233 kts | 348° |
| 2026-04-24 15:58 | 28.12193 | -81.28261 | 2548 ft | 232 kts | 348° |
| 2026-04-24 15:59 | 28.13773 | -81.28664 | 2581 ft | 233 kts | 348° |
| 2026-04-24 15:59 | 28.15354 | -81.29066 | 2579 ft | 235 kts | 349° |
| 2026-04-24 15:59 | 28.16950 | -81.29408 | 2576 ft | 233 kts | 1° |
| 2026-04-24 15:59 | 28.18502 | -81.29022 | 2588 ft | 228 kts | 31° |
| 2026-04-24 16:00 | 28.19662 | -81.27844 | 2583 ft | 224 kts | 60° |
| 2026-04-24 16:00 | 28.20173 | -81.26204 | 2584 ft | 221 kts | 89° |
| 2026-04-24 16:00 | 28.19945 | -81.24500 | 2586 ft | 221 kts | 115° |
| 2026-04-24 16:00 | 28.19041 | -81.23114 | 2581 ft | 221 kts | 142° |
| 2026-04-24 16:01 | 28.17671 | -81.22352 | 2580 ft | 221 kts | 165° |
| 2026-04-24 16:01 | 28.16171 | -81.21935 | 2571 ft | 220 kts | 166° |
| 2026-04-24 16:01 | 28.14667 | -81.21548 | 2570 ft | 222 kts | 167° |
| 2026-04-24 16:01 | 28.13170 | -81.21169 | 2559 ft | 221 kts | 167° |
| 2026-04-24 16:02 | 28.11666 | -81.20786 | 2557 ft | 222 kts | 166° |
| 2026-04-24 16:02 | 28.10151 | -81.20639 | 2554 ft | 220 kts | 187° |
| 2026-04-24 16:02 | 28.08743 | -81.21254 | 2541 ft | 223 kts | 215° |
| 2026-04-24 16:02 | 28.07734 | -81.22588 | 2547 ft | 227 kts | 245° |
| 2026-04-24 16:03 | 28.07418 | -81.24335 | 2552 ft | 231 kts | 274° |
| 2026-04-24 16:03 | 28.07903 | -81.26063 | 2547 ft | 233 kts | 304° |
| 2026-04-24 16:03 | 28.09079 | -81.27297 | 2548 ft | 231 kts | 335° |
| 2026-04-24 16:03 | 28.10604 | -81.27843 | 2560 ft | 231 kts | 348° |
| 2026-04-24 16:04 | 28.12168 | -81.28256 | 2548 ft | 232 kts | 348° |
| 2026-04-24 16:04 | 28.13745 | -81.28658 | 2566 ft | 233 kts | 348° |
| 2026-04-24 16:04 | 28.15316 | -81.29057 | 2570 ft | 233 kts | 349° |
| 2026-04-24 16:04 | 28.16901 | -81.29399 | 2561 ft | 231 kts | 0° |
| 2026-04-24 16:05 | 28.19613 | -81.27859 | 2572 ft | 224 kts | 60° |
| 2026-04-24 16:05 | 28.20123 | -81.26226 | 2571 ft | 220 kts | 89° |
| 2026-04-24 16:06 | 28.18983 | -81.23165 | 2566 ft | 218 kts | 143° |
| 2026-04-24 16:06 | 28.17618 | -81.22427 | 2563 ft | 218 kts | 165° |
| 2026-04-24 16:06 | 28.15144 | -81.21755 | 2555 ft | 219 kts | 167° |
| 2026-04-24 16:07 | 28.13148 | -81.21253 | 2557 ft | 220 kts | 166° |
| 2026-04-24 16:07 | 28.12156 | -81.21002 | 2551 ft | 221 kts | 167° |
| 2026-04-24 16:07 | 28.08724 | -81.21368 | 2549 ft | 223 kts | 217° |
| 2026-04-24 16:08 | 28.07740 | -81.22725 | 2552 ft | 228 kts | 246° |
| 2026-04-24 16:08 | 28.07750 | -81.25684 | 2559 ft | 235 kts | 296° |
| 2026-04-24 16:09 | 28.10260 | -81.27743 | 2552 ft | 231 kts | 347° |
| 2026-04-24 16:09 | 28.11818 | -81.28160 | 2560 ft | 230 kts | 348° |
| 2026-04-24 16:09 | 28.12240 | -81.28269 | 2551 ft | 0 kts | 348° |
| 2026-04-24 16:50 | 28.08941 | -81.27145 | 2586 ft | 2283 kts | 341° |
| 2026-04-24 16:50 | 28.01007 | -81.25610 | 2799 ft | 230 kts | 340° |
| 2026-04-24 16:51 | 28.02489 | -81.26092 | 3273 ft | 0 kts | 349° |
| 2026-04-24 16:51 | 28.16429 | -81.29048 | 3373 ft | 227 kts | 352° |
| 2026-04-24 16:51 | 28.18038 | -81.29099 | 3687 ft | 236 kts | 2° |
| 2026-04-24 16:51 | 28.36567 | -81.28522 | 2438 ft | 2141 kts | 1° |
| 2026-04-24 16:52 | 28.42541 | -81.30027 | 286 ft | 0 kts | 1° |
| 2026-04-24 16:52 | 28.42560 | -81.29976 | 103 ft | 0 kts | 1° |